sensor_id;sensor_type;location;lat;lon;timestamp;temperature;humidity
70706;DHT22;59320;52.316;10.870;2023-06-22T00:01:18;22.10;90.00
70706;DHT22;59320;52.316;10.870;2023-06-22T00:03:45;22.00;90.10
70706;DHT22;59320;52.316;10.870;2023-06-22T00:06:12;22.00;90.30
70706;DHT22;59320;52.316;10.870;2023-06-22T00:08:41;22.00;90.40
70706;DHT22;59320;52.316;10.870;2023-06-22T00:11:08;22.00;90.50
70706;DHT22;59320;52.316;10.870;2023-06-22T00:13:35;21.90;90.70
70706;DHT22;59320;52.316;10.870;2023-06-22T00:16:03;21.70;92.00
70706;DHT22;59320;52.316;10.870;2023-06-22T00:18:30;21.30;92.30
70706;DHT22;59320;52.316;10.870;2023-06-22T00:20:59;21.20;92.20
70706;DHT22;59320;52.316;10.870;2023-06-22T00:23:26;21.30;92.30
70706;DHT22;59320;52.316;10.870;2023-06-22T00:25:55;21.30;92.30
70706;DHT22;59320;52.316;10.870;2023-06-22T00:28:22;21.30;92.30
70706;DHT22;59320;52.316;10.870;2023-06-22T00:30:49;21.20;92.30
70706;DHT22;59320;52.316;10.870;2023-06-22T00:33:16;21.30;92.30
70706;DHT22;59320;52.316;10.870;2023-06-22T00:35:43;21.30;92.10
70706;DHT22;59320;52.316;10.870;2023-06-22T00:38:11;21.30;92.20
70706;DHT22;59320;52.316;10.870;2023-06-22T00:40:38;21.30;92.30
70706;DHT22;59320;52.316;10.870;2023-06-22T00:43:06;21.20;92.40
70706;DHT22;59320;52.316;10.870;2023-06-22T00:45:35;21.20;92.30
70706;DHT22;59320;52.316;10.870;2023-06-22T00:48:03;21.30;92.50
70706;DHT22;59320;52.316;10.870;2023-06-22T00:50:32;21.30;92.80
70706;DHT22;59320;52.316;10.870;2023-06-22T00:53:03;21.30;92.60
70706;DHT22;59320;52.316;10.870;2023-06-22T00:55:35;21.30;92.60
70706;DHT22;59320;52.316;10.870;2023-06-22T00:58:06;21.20;92.40
70706;DHT22;59320;52.316;10.870;2023-06-22T01:00:36;21.20;92.60
70706;DHT22;59320;52.316;10.870;2023-06-22T01:03:04;21.20;92.50
70706;DHT22;59320;52.316;10.870;2023-06-22T01:05:35;21.20;92.60
70706;DHT22;59320;52.316;10.870;2023-06-22T01:08:12;21.10;92.60
70706;DHT22;59320;52.316;10.870;2023-06-22T01:10:47;21.10;92.80
70706;DHT22;59320;52.316;10.870;2023-06-22T01:13:26;21.20;92.80
70706;DHT22;59320;52.316;10.870;2023-06-22T01:15:57;21.20;93.00
70706;DHT22;59320;52.316;10.870;2023-06-22T01:18:28;21.20;92.90
70706;DHT22;59320;52.316;10.870;2023-06-22T01:20:57;21.10;93.00
70706;DHT22;59320;52.316;10.870;2023-06-22T01:23:33;21.10;93.30
70706;DHT22;59320;52.316;10.870;2023-06-22T01:26:06;21.10;93.10
70706;DHT22;59320;52.316;10.870;2023-06-22T01:28:45;21.00;93.00
70706;DHT22;59320;52.316;10.870;2023-06-22T01:31:16;21.00;93.10
70706;DHT22;59320;52.316;10.870;2023-06-22T01:33:45;21.00;93.30
70706;DHT22;59320;52.316;10.870;2023-06-22T01:36:14;21.10;93.40
70706;DHT22;59320;52.316;10.870;2023-06-22T01:38:46;21.00;93.40
70706;DHT22;59320;52.316;10.870;2023-06-22T01:41:15;21.00;93.40
70706;DHT22;59320;52.316;10.870;2023-06-22T01:43:44;21.00;93.60
70706;DHT22;59320;52.316;10.870;2023-06-22T01:46:12;21.00;93.70
70706;DHT22;59320;52.316;10.870;2023-06-22T01:48:39;20.90;93.80
70706;DHT22;59320;52.316;10.870;2023-06-22T01:51:34;20.90;94.00
70706;DHT22;59320;52.316;10.870;2023-06-22T01:54:02;20.80;94.20
70706;DHT22;59320;52.316;10.870;2023-06-22T01:56:29;20.70;94.40
70706;DHT22;59320;52.316;10.870;2023-06-22T01:59:01;20.50;94.80
70706;DHT22;59320;52.316;10.870;2023-06-22T02:01:35;20.40;95.00
70706;DHT22;59320;52.316;10.870;2023-06-22T02:04:06;20.40;95.00
70706;DHT22;59320;52.316;10.870;2023-06-22T02:06:36;20.50;94.80
70706;DHT22;59320;52.316;10.870;2023-06-22T02:09:08;20.50;94.70
70706;DHT22;59320;52.316;10.870;2023-06-22T02:11:37;20.60;94.80
70706;DHT22;59320;52.316;10.870;2023-06-22T02:14:08;20.60;94.70
70706;DHT22;59320;52.316;10.870;2023-06-22T02:16:35;20.60;94.80
70706;DHT22;59320;52.316;10.870;2023-06-22T02:19:03;20.60;94.70
70706;DHT22;59320;52.316;10.870;2023-06-22T02:21:34;20.60;94.70
70706;DHT22;59320;52.316;10.870;2023-06-22T02:24:01;20.50;94.80
70706;DHT22;59320;52.316;10.870;2023-06-22T02:26:30;20.50;95.10
70706;DHT22;59320;52.316;10.870;2023-06-22T02:28:57;20.50;94.60
70706;DHT22;59320;52.316;10.870;2023-06-22T02:31:26;20.50;94.60
70706;DHT22;59320;52.316;10.870;2023-06-22T02:33:56;20.60;94.50
70706;DHT22;59320;52.316;10.870;2023-06-22T02:36:24;20.50;94.50
70706;DHT22;59320;52.316;10.870;2023-06-22T02:38:52;20.50;94.60
70706;DHT22;59320;52.316;10.870;2023-06-22T02:41:20;20.50;94.60
70706;DHT22;59320;52.316;10.870;2023-06-22T02:43:48;20.50;94.60
70706;DHT22;59320;52.316;10.870;2023-06-22T02:46:19;20.40;94.80
70706;DHT22;59320;52.316;10.870;2023-06-22T02:48:47;20.40;94.80
70706;DHT22;59320;52.316;10.870;2023-06-22T02:51:15;20.40;94.80
70706;DHT22;59320;52.316;10.870;2023-06-22T02:53:42;20.40;94.80
70706;DHT22;59320;52.316;10.870;2023-06-22T02:56:12;20.50;95.00
70706;DHT22;59320;52.316;10.870;2023-06-22T02:58:39;20.50;95.00
70706;DHT22;59320;52.316;10.870;2023-06-22T03:01:11;20.50;95.10
70706;DHT22;59320;52.316;10.870;2023-06-22T03:03:40;20.40;95.10
70706;DHT22;59320;52.316;10.870;2023-06-22T03:06:08;20.40;95.20
70706;DHT22;59320;52.316;10.870;2023-06-22T03:08:39;20.30;95.30
70706;DHT22;59320;52.316;10.870;2023-06-22T03:11:07;20.30;95.60
70706;DHT22;59320;52.316;10.870;2023-06-22T03:13:34;20.20;95.40
70706;DHT22;59320;52.316;10.870;2023-06-22T03:16:01;20.20;95.50
70706;DHT22;59320;52.316;10.870;2023-06-22T03:18:28;20.10;95.60
70706;DHT22;59320;52.316;10.870;2023-06-22T03:20:55;20.10;95.60
70706;DHT22;59320;52.316;10.870;2023-06-22T03:23:25;20.10;95.50
70706;DHT22;59320;52.316;10.870;2023-06-22T03:25:52;20.20;95.60
70706;DHT22;59320;52.316;10.870;2023-06-22T03:28:21;20.20;95.50
70706;DHT22;59320;52.316;10.870;2023-06-22T03:30:48;20.30;95.40
70706;DHT22;59320;52.316;10.870;2023-06-22T03:33:16;20.40;95.30
70706;DHT22;59320;52.316;10.870;2023-06-22T03:35:43;20.40;95.20
70706;DHT22;59320;52.316;10.870;2023-06-22T03:38:11;20.50;95.20
70706;DHT22;59320;52.316;10.870;2023-06-22T03:40:39;20.60;95.20
70706;DHT22;59320;52.316;10.870;2023-06-22T03:43:07;20.70;95.20
70706;DHT22;59320;52.316;10.870;2023-06-22T03:45:35;20.80;95.00
70706;DHT22;59320;52.316;10.870;2023-06-22T03:48:02;20.80;95.10
70706;DHT22;59320;52.316;10.870;2023-06-22T03:50:31;20.70;95.30
70706;DHT22;59320;52.316;10.870;2023-06-22T03:52:58;20.60;95.40
70706;DHT22;59320;52.316;10.870;2023-06-22T03:55:25;20.50;95.60
70706;DHT22;59320;52.316;10.870;2023-06-22T03:57:53;20.40;95.90
70706;DHT22;59320;52.316;10.870;2023-06-22T04:00:22;20.50;95.90
70706;DHT22;59320;52.316;10.870;2023-06-22T04:02:49;20.60;95.70
70706;DHT22;59320;52.316;10.870;2023-06-22T04:05:16;20.70;95.50
70706;DHT22;59320;52.316;10.870;2023-06-22T04:07:45;20.80;95.40
70706;DHT22;59320;52.316;10.870;2023-06-22T04:10:12;20.80;95.30
70706;DHT22;59320;52.316;10.870;2023-06-22T04:12:38;20.90;95.20
70706;DHT22;59320;52.316;10.870;2023-06-22T04:15:08;21.00;95.10
70706;DHT22;59320;52.316;10.870;2023-06-22T04:17:35;21.20;95.10
70706;DHT22;59320;52.316;10.870;2023-06-22T04:20:02;21.30;95.10
70706;DHT22;59320;52.316;10.870;2023-06-22T04:22:31;21.40;95.20
70706;DHT22;59320;52.316;10.870;2023-06-22T04:24:58;21.50;95.20
70706;DHT22;59320;52.316;10.870;2023-06-22T04:27:25;21.60;95.10
70706;DHT22;59320;52.316;10.870;2023-06-22T04:29:52;21.60;94.90
70706;DHT22;59320;52.316;10.870;2023-06-22T04:32:20;21.60;94.70
70706;DHT22;59320;52.316;10.870;2023-06-22T04:34:47;21.50;94.70
70706;DHT22;59320;52.316;10.870;2023-06-22T04:37:14;21.60;94.50
70706;DHT22;59320;52.316;10.870;2023-06-22T04:39:42;21.50;94.30
70706;DHT22;59320;52.316;10.870;2023-06-22T04:42:09;21.60;94.30
70706;DHT22;59320;52.316;10.870;2023-06-22T04:44:36;21.70;94.20
70706;DHT22;59320;52.316;10.870;2023-06-22T04:47:03;21.80;94.00
70706;DHT22;59320;52.316;10.870;2023-06-22T04:49:34;22.00;93.80
70706;DHT22;59320;52.316;10.870;2023-06-22T04:52:04;22.10;93.80
70706;DHT22;59320;52.316;10.870;2023-06-22T04:54:32;22.20;94.00
70706;DHT22;59320;52.316;10.870;2023-06-22T04:56:59;22.20;94.10
70706;DHT22;59320;52.316;10.870;2023-06-22T04:59:27;22.30;93.90
70706;DHT22;59320;52.316;10.870;2023-06-22T05:01:55;22.50;93.70
70706;DHT22;59320;52.316;10.870;2023-06-22T05:04:22;22.70;93.60
70706;DHT22;59320;52.316;10.870;2023-06-22T05:06:51;22.90;93.60
70706;DHT22;59320;52.316;10.870;2023-06-22T05:09:19;23.00;93.50
70706;DHT22;59320;52.316;10.870;2023-06-22T05:11:46;23.10;93.20
70706;DHT22;59320;52.316;10.870;2023-06-22T05:14:13;23.20;93.10
70706;DHT22;59320;52.316;10.870;2023-06-22T05:16:41;23.30;93.10
70706;DHT22;59320;52.316;10.870;2023-06-22T05:19:09;23.40;93.00
70706;DHT22;59320;52.316;10.870;2023-06-22T05:21:36;23.40;92.90
70706;DHT22;59320;52.316;10.870;2023-06-22T05:24:05;23.40;92.90
70706;DHT22;59320;52.316;10.870;2023-06-22T05:26:33;23.50;92.80
70706;DHT22;59320;52.316;10.870;2023-06-22T05:29:02;23.60;92.70
70706;DHT22;59320;52.316;10.870;2023-06-22T05:31:29;23.70;92.60
70706;DHT22;59320;52.316;10.870;2023-06-22T05:33:57;23.60;92.70
70706;DHT22;59320;52.316;10.870;2023-06-22T05:36:25;23.60;92.80
70706;DHT22;59320;52.316;10.870;2023-06-22T05:38:52;23.70;92.70
70706;DHT22;59320;52.316;10.870;2023-06-22T05:41:21;23.60;92.60
70706;DHT22;59320;52.316;10.870;2023-06-22T05:43:48;23.50;92.50
70706;DHT22;59320;52.316;10.870;2023-06-22T05:46:15;23.40;92.70
70706;DHT22;59320;52.316;10.870;2023-06-22T05:48:43;23.40;92.80
70706;DHT22;59320;52.316;10.870;2023-06-22T05:51:10;23.50;92.70
70706;DHT22;59320;52.316;10.870;2023-06-22T05:53:37;23.60;92.60
70706;DHT22;59320;52.316;10.870;2023-06-22T05:56:04;23.70;92.50
70706;DHT22;59320;52.316;10.870;2023-06-22T05:58:32;23.80;92.30
70706;DHT22;59320;52.316;10.870;2023-06-22T06:00:59;23.80;92.60
70706;DHT22;59320;52.316;10.870;2023-06-22T06:03:26;23.90;92.30
70706;DHT22;59320;52.316;10.870;2023-06-22T06:05:54;24.00;92.10
70706;DHT22;59320;52.316;10.870;2023-06-22T06:08:21;24.10;92.10
70706;DHT22;59320;52.316;10.870;2023-06-22T06:10:48;24.10;92.10
70706;DHT22;59320;52.316;10.870;2023-06-22T06:13:15;24.10;92.10
70706;DHT22;59320;52.316;10.870;2023-06-22T06:15:44;24.30;92.10
70706;DHT22;59320;52.316;10.870;2023-06-22T06:18:11;24.40;91.90
70706;DHT22;59320;52.316;10.870;2023-06-22T06:20:38;24.50;92.10
70706;DHT22;59320;52.316;10.870;2023-06-22T06:23:05;24.50;92.00
70706;DHT22;59320;52.316;10.870;2023-06-22T06:25:32;24.60;91.80
70706;DHT22;59320;52.316;10.870;2023-06-22T06:27:59;24.70;91.80
70706;DHT22;59320;52.316;10.870;2023-06-22T06:30:27;24.90;91.80
70706;DHT22;59320;52.316;10.870;2023-06-22T06:32:55;25.10;91.40
70706;DHT22;59320;52.316;10.870;2023-06-22T06:35:22;25.20;91.00
70706;DHT22;59320;52.316;10.870;2023-06-22T06:37:50;25.20;90.90
70706;DHT22;59320;52.316;10.870;2023-06-22T06:40:18;25.00;91.10
70706;DHT22;59320;52.316;10.870;2023-06-22T06:42:46;25.00;91.30
70706;DHT22;59320;52.316;10.870;2023-06-22T06:45:16;25.00;91.20
70706;DHT22;59320;52.316;10.870;2023-06-22T06:47:44;25.10;91.10
70706;DHT22;59320;52.316;10.870;2023-06-22T06:50:12;25.10;90.90
70706;DHT22;59320;52.316;10.870;2023-06-22T06:52:39;25.10;91.10
70706;DHT22;59320;52.316;10.870;2023-06-22T06:55:08;25.10;91.00
70706;DHT22;59320;52.316;10.870;2023-06-22T06:57:38;25.20;90.90
70706;DHT22;59320;52.316;10.870;2023-06-22T07:00:06;25.10;90.90
70706;DHT22;59320;52.316;10.870;2023-06-22T07:02:38;25.20;90.70
70706;DHT22;59320;52.316;10.870;2023-06-22T07:05:05;25.20;90.70
70706;DHT22;59320;52.316;10.870;2023-06-22T07:07:35;25.30;90.50
70706;DHT22;59320;52.316;10.870;2023-06-22T07:10:04;25.40;90.70
70706;DHT22;59320;52.316;10.870;2023-06-22T07:12:31;25.40;90.50
70706;DHT22;59320;52.316;10.870;2023-06-22T07:15:02;25.40;90.90
70706;DHT22;59320;52.316;10.870;2023-06-22T07:17:30;25.50;90.50
70706;DHT22;59320;52.316;10.870;2023-06-22T07:19:57;25.50;90.60
70706;DHT22;59320;52.316;10.870;2023-06-22T07:22:24;25.50;90.60
70706;DHT22;59320;52.316;10.870;2023-06-22T07:24:52;25.60;90.50
70706;DHT22;59320;52.316;10.870;2023-06-22T07:27:19;25.70;90.30
70706;DHT22;59320;52.316;10.870;2023-06-22T07:29:47;25.80;90.40
70706;DHT22;59320;52.316;10.870;2023-06-22T07:32:14;25.90;90.10
70706;DHT22;59320;52.316;10.870;2023-06-22T07:34:41;25.90;90.10
70706;DHT22;59320;52.316;10.870;2023-06-22T07:37:08;25.90;90.00
70706;DHT22;59320;52.316;10.870;2023-06-22T07:39:35;25.90;90.10
70706;DHT22;59320;52.316;10.870;2023-06-22T07:42:05;26.10;90.10
70706;DHT22;59320;52.316;10.870;2023-06-22T07:44:32;26.10;89.90
70706;DHT22;59320;52.316;10.870;2023-06-22T07:46:59;26.20;89.60
70706;DHT22;59320;52.316;10.870;2023-06-22T07:49:27;26.30;89.60
70706;DHT22;59320;52.316;10.870;2023-06-22T07:51:55;26.40;89.50
70706;DHT22;59320;52.316;10.870;2023-06-22T07:54:22;26.50;89.20
70706;DHT22;59320;52.316;10.870;2023-06-22T07:56:49;26.50;89.10
70706;DHT22;59320;52.316;10.870;2023-06-22T07:59:17;26.60;88.60
70706;DHT22;59320;52.316;10.870;2023-06-22T08:01:44;26.60;88.60
70706;DHT22;59320;52.316;10.870;2023-06-22T08:04:11;26.70;88.70
70706;DHT22;59320;52.316;10.870;2023-06-22T08:06:38;26.80;88.20
70706;DHT22;59320;52.316;10.870;2023-06-22T08:09:05;26.90;87.90
70706;DHT22;59320;52.316;10.870;2023-06-22T08:11:32;27.00;87.90
70706;DHT22;59320;52.316;10.870;2023-06-22T08:13:59;27.00;87.40
70706;DHT22;59320;52.316;10.870;2023-06-22T08:16:28;27.00;87.50
70706;DHT22;59320;52.316;10.870;2023-06-22T08:18:55;27.10;87.10
70706;DHT22;59320;52.316;10.870;2023-06-22T08:21:22;27.30;86.80
70706;DHT22;59320;52.316;10.870;2023-06-22T08:23:49;27.60;86.60
70706;DHT22;59320;52.316;10.870;2023-06-22T08:26:16;28.00;86.10
70706;DHT22;59320;52.316;10.870;2023-06-22T08:28:43;28.40;84.60
70706;DHT22;59320;52.316;10.870;2023-06-22T08:31:10;28.70;83.50
70706;DHT22;59320;52.316;10.870;2023-06-22T08:33:39;29.00;82.80
70706;DHT22;59320;52.316;10.870;2023-06-22T08:36:06;29.30;82.10
70706;DHT22;59320;52.316;10.870;2023-06-22T08:38:34;29.30;80.80
70706;DHT22;59320;52.316;10.870;2023-06-22T08:41:01;29.30;81.10
70706;DHT22;59320;52.316;10.870;2023-06-22T08:43:28;29.20;81.30
70706;DHT22;59320;52.316;10.870;2023-06-22T08:45:55;29.00;81.40
70706;DHT22;59320;52.316;10.870;2023-06-22T08:48:22;28.90;81.50
70706;DHT22;59320;52.316;10.870;2023-06-22T08:50:51;28.90;81.30
70706;DHT22;59320;52.316;10.870;2023-06-22T08:53:18;29.00;81.70
70706;DHT22;59320;52.316;10.870;2023-06-22T08:55:45;29.10;81.00
70706;DHT22;59320;52.316;10.870;2023-06-22T08:58:12;29.20;80.90
70706;DHT22;59320;52.316;10.870;2023-06-22T09:00:39;29.30;81.10
70706;DHT22;59320;52.316;10.870;2023-06-22T09:03:06;29.40;81.00
70706;DHT22;59320;52.316;10.870;2023-06-22T09:05:33;29.50;80.10
70706;DHT22;59320;52.316;10.870;2023-06-22T09:08:02;29.70;80.90
70706;DHT22;59320;52.316;10.870;2023-06-22T09:10:29;29.80;79.80
70706;DHT22;59320;52.316;10.870;2023-06-22T09:12:56;29.90;79.00
70706;DHT22;59320;52.316;10.870;2023-06-22T09:15:24;30.10;78.80
70706;DHT22;59320;52.316;10.870;2023-06-22T09:17:51;30.10;77.70
70706;DHT22;59320;52.316;10.870;2023-06-22T09:20:20;30.10;77.50
70706;DHT22;59320;52.316;10.870;2023-06-22T09:22:47;30.10;76.90
70706;DHT22;59320;52.316;10.870;2023-06-22T09:25:15;30.30;77.10
70706;DHT22;59320;52.316;10.870;2023-06-22T09:27:43;30.40;76.10
70706;DHT22;59320;52.316;10.870;2023-06-22T09:30:10;30.50;75.40
70706;DHT22;59320;52.316;10.870;2023-06-22T09:32:37;30.50;75.40
70706;DHT22;59320;52.316;10.870;2023-06-22T09:35:05;30.50;75.90
70706;DHT22;59320;52.316;10.870;2023-06-22T09:37:34;30.60;74.90
70706;DHT22;59320;52.316;10.870;2023-06-22T09:40:01;30.70;75.00
70706;DHT22;59320;52.316;10.870;2023-06-22T09:42:34;30.80;74.30
70706;DHT22;59320;52.316;10.870;2023-06-22T09:45:01;30.80;74.50
70706;DHT22;59320;52.316;10.870;2023-06-22T09:47:29;30.80;73.40
70706;DHT22;59320;52.316;10.870;2023-06-22T09:49:56;30.90;72.80
70706;DHT22;59320;52.316;10.870;2023-06-22T09:52:25;30.80;72.80
70706;DHT22;59320;52.316;10.870;2023-06-22T09:54:52;30.80;73.10
70706;DHT22;59320;52.316;10.870;2023-06-22T09:57:19;30.70;72.70
70706;DHT22;59320;52.316;10.870;2023-06-22T09:59:48;30.60;72.40
70706;DHT22;59320;52.316;10.870;2023-06-22T10:02:15;30.50;72.90
70706;DHT22;59320;52.316;10.870;2023-06-22T10:04:42;30.40;72.70
70706;DHT22;59320;52.316;10.870;2023-06-22T10:07:09;30.40;72.50
70706;DHT22;59320;52.316;10.870;2023-06-22T10:09:37;30.40;72.70
70706;DHT22;59320;52.316;10.870;2023-06-22T10:12:04;30.30;72.60
70706;DHT22;59320;52.316;10.870;2023-06-22T10:14:31;30.30;73.30
70706;DHT22;59320;52.316;10.870;2023-06-22T10:16:59;30.50;73.10
70706;DHT22;59320;52.316;10.870;2023-06-22T10:19:26;30.70;71.60
70706;DHT22;59320;52.316;10.870;2023-06-22T10:21:53;30.90;71.60
70706;DHT22;59320;52.316;10.870;2023-06-22T10:24:21;31.10;71.30
70706;DHT22;59320;52.316;10.870;2023-06-22T10:26:48;31.20;70.50
70706;DHT22;59320;52.316;10.870;2023-06-22T10:29:15;31.10;70.30
70706;DHT22;59320;52.316;10.870;2023-06-22T10:31:42;31.20;70.30
70706;DHT22;59320;52.316;10.870;2023-06-22T10:34:10;31.20;70.70
70706;DHT22;59320;52.316;10.870;2023-06-22T10:36:38;31.40;69.80
70706;DHT22;59320;52.316;10.870;2023-06-22T10:39:07;31.50;69.50
70706;DHT22;59320;52.316;10.870;2023-06-22T10:41:35;31.50;68.30
70706;DHT22;59320;52.316;10.870;2023-06-22T10:44:02;31.50;68.60
70706;DHT22;59320;52.316;10.870;2023-06-22T10:46:29;31.70;68.00
70706;DHT22;59320;52.316;10.870;2023-06-22T10:48:56;31.70;67.70
70706;DHT22;59320;52.316;10.870;2023-06-22T10:51:25;31.70;67.30
70706;DHT22;59320;52.316;10.870;2023-06-22T10:53:54;31.60;68.10
70706;DHT22;59320;52.316;10.870;2023-06-22T10:56:21;31.70;67.40
70706;DHT22;59320;52.316;10.870;2023-06-22T10:58:48;31.70;67.30
70706;DHT22;59320;52.316;10.870;2023-06-22T11:01:15;31.70;67.10
70706;DHT22;59320;52.316;10.870;2023-06-22T11:03:42;31.80;66.50
70706;DHT22;59320;52.316;10.870;2023-06-22T11:06:09;31.90;66.00
70706;DHT22;59320;52.316;10.870;2023-06-22T11:08:37;31.80;65.60
70706;DHT22;59320;52.316;10.870;2023-06-22T11:11:04;31.90;66.00
70706;DHT22;59320;52.316;10.870;2023-06-22T11:13:31;32.40;64.80
70706;DHT22;59320;52.316;10.870;2023-06-22T11:15:58;33.00;64.20
70706;DHT22;59320;52.316;10.870;2023-06-22T11:18:25;33.50;62.10
70706;DHT22;59320;52.316;10.870;2023-06-22T11:20:52;34.10;61.00
70706;DHT22;59320;52.316;10.870;2023-06-22T11:23:19;34.60;59.70
70706;DHT22;59320;52.316;10.870;2023-06-22T11:25:48;34.90;59.20
70706;DHT22;59320;52.316;10.870;2023-06-22T11:28:15;34.70;57.90
70706;DHT22;59320;52.316;10.870;2023-06-22T11:30:42;34.20;58.50
70706;DHT22;59320;52.316;10.870;2023-06-22T11:33:09;33.80;58.80
70706;DHT22;59320;52.316;10.870;2023-06-22T11:35:36;33.80;59.60
70706;DHT22;59320;52.316;10.870;2023-06-22T11:38:03;33.90;60.10
70706;DHT22;59320;52.316;10.870;2023-06-22T11:40:30;34.00;59.30
70706;DHT22;59320;52.316;10.870;2023-06-22T11:42:59;33.90;59.20
70706;DHT22;59320;52.316;10.870;2023-06-22T11:45:27;33.80;58.90
70706;DHT22;59320;52.316;10.870;2023-06-22T11:47:54;33.70;58.80
70706;DHT22;59320;52.316;10.870;2023-06-22T11:50:21;33.80;58.80
70706;DHT22;59320;52.316;10.870;2023-06-22T11:52:48;33.70;58.30
70706;DHT22;59320;52.316;10.870;2023-06-22T11:55:15;33.60;57.90
70706;DHT22;59320;52.316;10.870;2023-06-22T11:57:53;33.40;58.30
70706;DHT22;59320;52.316;10.870;2023-06-22T12:00:22;33.10;58.20
70706;DHT22;59320;52.316;10.870;2023-06-22T12:02:50;33.20;57.80
70706;DHT22;59320;52.316;10.870;2023-06-22T12:05:18;33.30;58.00
70706;DHT22;59320;52.316;10.870;2023-06-22T12:07:46;33.60;58.10
70706;DHT22;59320;52.316;10.870;2023-06-22T12:10:13;33.90;57.60
70706;DHT22;59320;52.316;10.870;2023-06-22T12:12:40;34.20;55.60
70706;DHT22;59320;52.316;10.870;2023-06-22T12:15:08;33.80;56.20
70706;DHT22;59320;52.316;10.870;2023-06-22T12:17:37;34.00;57.20
70706;DHT22;59320;52.316;10.870;2023-06-22T12:20:05;34.50;56.10
70706;DHT22;59320;52.316;10.870;2023-06-22T12:22:33;34.90;55.90
70706;DHT22;59320;52.316;10.870;2023-06-22T12:25:00;35.40;55.00
70706;DHT22;59320;52.316;10.870;2023-06-22T12:27:28;35.70;53.80
70706;DHT22;59320;52.316;10.870;2023-06-22T12:29:56;35.60;52.40
70706;DHT22;59320;52.316;10.870;2023-06-22T12:32:23;35.50;54.00
70706;DHT22;59320;52.316;10.870;2023-06-22T12:34:52;35.50;53.80
70706;DHT22;59320;52.316;10.870;2023-06-22T12:37:19;35.10;53.00
70706;DHT22;59320;52.316;10.870;2023-06-22T12:39:46;35.10;53.30
70706;DHT22;59320;52.316;10.870;2023-06-22T12:42:13;35.30;53.00
70706;DHT22;59320;52.316;10.870;2023-06-22T12:44:40;35.20;53.00
70706;DHT22;59320;52.316;10.870;2023-06-22T12:47:08;35.00;52.80
70706;DHT22;59320;52.316;10.870;2023-06-22T12:49:35;34.70;53.50
70706;DHT22;59320;52.316;10.870;2023-06-22T12:52:08;34.90;54.00
70706;DHT22;59320;52.316;10.870;2023-06-22T12:54:35;35.10;53.80
70706;DHT22;59320;52.316;10.870;2023-06-22T12:57:02;35.40;51.80
70706;DHT22;59320;52.316;10.870;2023-06-22T12:59:29;35.20;52.70
70706;DHT22;59320;52.316;10.870;2023-06-22T13:01:56;34.80;52.40
70706;DHT22;59320;52.316;10.870;2023-06-22T13:04:23;34.30;53.00
70706;DHT22;59320;52.316;10.870;2023-06-22T13:06:50;34.20;54.20
70706;DHT22;59320;52.316;10.870;2023-06-22T13:09:19;34.50;54.00
70706;DHT22;59320;52.316;10.870;2023-06-22T13:11:46;34.70;52.70
70706;DHT22;59320;52.316;10.870;2023-06-22T13:14:13;34.20;52.70
70706;DHT22;59320;52.316;10.870;2023-06-22T13:16:41;33.80;54.10
70706;DHT22;59320;52.316;10.870;2023-06-22T13:19:08;33.90;54.00
70706;DHT22;59320;52.316;10.870;2023-06-22T13:21:35;34.20;53.00
70706;DHT22;59320;52.316;10.870;2023-06-22T13:24:03;34.00;53.50
70706;DHT22;59320;52.316;10.870;2023-06-22T13:26:33;33.90;53.70
70706;DHT22;59320;52.316;10.870;2023-06-22T13:29:00;34.10;53.40
70706;DHT22;59320;52.316;10.870;2023-06-22T13:31:27;34.10;53.50
70706;DHT22;59320;52.316;10.870;2023-06-22T13:33:54;34.10;53.70
70706;DHT22;59320;52.316;10.870;2023-06-22T13:36:21;34.10;53.90
70706;DHT22;59320;52.316;10.870;2023-06-22T13:38:49;34.30;53.90
70706;DHT22;59320;52.316;10.870;2023-06-22T13:41:16;34.40;53.20
70706;DHT22;59320;52.316;10.870;2023-06-22T13:43:44;34.40;52.90
70706;DHT22;59320;52.316;10.870;2023-06-22T13:46:11;34.40;53.30
70706;DHT22;59320;52.316;10.870;2023-06-22T13:48:38;34.40;53.60
70706;DHT22;59320;52.316;10.870;2023-06-22T13:51:05;34.30;53.30
70706;DHT22;59320;52.316;10.870;2023-06-22T13:53:32;34.20;52.80
70706;DHT22;59320;52.316;10.870;2023-06-22T13:55:59;34.30;53.00
70706;DHT22;59320;52.316;10.870;2023-06-22T13:58:26;34.30;53.00
70706;DHT22;59320;52.316;10.870;2023-06-22T14:00:54;34.00;53.80
70706;DHT22;59320;52.316;10.870;2023-06-22T14:03:21;33.80;53.40
70706;DHT22;59320;52.316;10.870;2023-06-22T14:05:48;33.30;54.20
70706;DHT22;59320;52.316;10.870;2023-06-22T14:08:15;33.00;54.90
70706;DHT22;59320;52.316;10.870;2023-06-22T14:10:43;32.70;55.20
70706;DHT22;59320;52.316;10.870;2023-06-22T14:13:10;32.50;55.90
70706;DHT22;59320;52.316;10.870;2023-06-22T14:15:37;32.30;56.20
70706;DHT22;59320;52.316;10.870;2023-06-22T14:18:05;32.10;56.50
70706;DHT22;59320;52.316;10.870;2023-06-22T14:20:32;32.00;56.60
70706;DHT22;59320;52.316;10.870;2023-06-22T14:22:59;32.10;56.70
70706;DHT22;59320;52.316;10.870;2023-06-22T14:25:26;32.30;57.00
70706;DHT22;59320;52.316;10.870;2023-06-22T14:27:53;32.60;56.80
70706;DHT22;59320;52.316;10.870;2023-06-22T14:30:20;32.80;56.80
70706;DHT22;59320;52.316;10.870;2023-06-22T14:32:47;32.80;56.60
70706;DHT22;59320;52.316;10.870;2023-06-22T14:35:15;32.70;56.80
70706;DHT22;59320;52.316;10.870;2023-06-22T14:37:42;32.60;57.00
70706;DHT22;59320;52.316;10.870;2023-06-22T14:40:11;32.60;56.90
70706;DHT22;59320;52.316;10.870;2023-06-22T14:42:38;32.60;56.40
70706;DHT22;59320;52.316;10.870;2023-06-22T14:45:06;32.60;56.20
70706;DHT22;59320;52.316;10.870;2023-06-22T14:47:34;32.50;56.60
70706;DHT22;59320;52.316;10.870;2023-06-22T14:50:01;32.40;57.20
70706;DHT22;59320;52.316;10.870;2023-06-22T14:52:30;32.30;57.20
70706;DHT22;59320;52.316;10.870;2023-06-22T14:54:58;32.10;57.20
70706;DHT22;59320;52.316;10.870;2023-06-22T14:57:25;32.10;57.30
70706;DHT22;59320;52.316;10.870;2023-06-22T14:59:52;32.20;57.40
70706;DHT22;59320;52.316;10.870;2023-06-22T15:02:19;32.30;57.50
70706;DHT22;59320;52.316;10.870;2023-06-22T15:04:46;32.40;57.30
70706;DHT22;59320;52.316;10.870;2023-06-22T15:07:14;32.40;57.30
70706;DHT22;59320;52.316;10.870;2023-06-22T15:09:43;32.40;57.00
70706;DHT22;59320;52.316;10.870;2023-06-22T15:12:11;32.20;57.40
70706;DHT22;59320;52.316;10.870;2023-06-22T15:14:39;32.10;57.20
70706;DHT22;59320;52.316;10.870;2023-06-22T15:17:06;31.80;57.60
70706;DHT22;59320;52.316;10.870;2023-06-22T15:19:35;31.70;58.10